sensor_id;sensor_type;location;lat;lon;timestamp;temperature;humidity
16032;DHT22;8120;48.308;8.914;2023-07-08T00:00:17;21.40;42.80
16032;DHT22;8120;48.308;8.914;2023-07-08T00:02:47;21.40;43.00
16032;DHT22;8120;48.308;8.914;2023-07-08T00:05:16;21.30;43.00
16032;DHT22;8120;48.308;8.914;2023-07-08T00:07:45;21.30;43.20
16032;DHT22;8120;48.308;8.914;2023-07-08T00:10:15;21.20;43.20
16032;DHT22;8120;48.308;8.914;2023-07-08T00:12:45;21.20;43.40
16032;DHT22;8120;48.308;8.914;2023-07-08T00:15:13;21.10;43.60
16032;DHT22;8120;48.308;8.914;2023-07-08T00:17:43;21.00;43.70
16032;DHT22;8120;48.308;8.914;2023-07-08T00:20:14;20.90;44.00
16032;DHT22;8120;48.308;8.914;2023-07-08T00:22:44;20.80;44.30
16032;DHT22;8120;48.308;8.914;2023-07-08T00:25:13;20.80;44.20
16032;DHT22;8120;48.308;8.914;2023-07-08T00:27:42;20.70;44.30
16032;DHT22;8120;48.308;8.914;2023-07-08T00:30:19;20.70;44.60
16032;DHT22;8120;48.308;8.914;2023-07-08T00:32:47;20.80;44.30
16032;DHT22;8120;48.308;8.914;2023-07-08T00:35:29;20.70;44.40
16032;DHT22;8120;48.308;8.914;2023-07-08T00:37:58;20.70;44.50
16032;DHT22;8120;48.308;8.914;2023-07-08T00:40:29;20.70;44.60
16032;DHT22;8120;48.308;8.914;2023-07-08T00:42:59;20.70;44.60
16032;DHT22;8120;48.308;8.914;2023-07-08T00:45:40;20.60;44.70
16032;DHT22;8120;48.308;8.914;2023-07-08T00:48:29;20.60;44.60
16032;DHT22;8120;48.308;8.914;2023-07-08T00:50:59;20.60;44.70
16032;DHT22;8120;48.308;8.914;2023-07-08T00:53:29;20.70;44.50
16032;DHT22;8120;48.308;8.914;2023-07-08T00:56:00;20.80;44.30
16032;DHT22;8120;48.308;8.914;2023-07-08T00:58:32;20.80;44.30
16032;DHT22;8120;48.308;8.914;2023-07-08T01:01:04;20.80;44.30
16032;DHT22;8120;48.308;8.914;2023-07-08T01:03:38;20.50;45.70
16032;DHT22;8120;48.308;8.914;2023-07-08T01:06:10;20.00;47.40
16032;DHT22;8120;48.308;8.914;2023-07-08T01:08:38;19.50;49.00
16032;DHT22;8120;48.308;8.914;2023-07-08T01:11:05;19.10;49.70
16032;DHT22;8120;48.308;8.914;2023-07-08T01:13:37;18.90;50.00
16032;DHT22;8120;48.308;8.914;2023-07-08T01:16:08;18.80;50.50
16032;DHT22;8120;48.308;8.914;2023-07-08T01:18:36;18.70;50.70
16032;DHT22;8120;48.308;8.914;2023-07-08T01:21:27;18.70;50.40
16032;DHT22;8120;48.308;8.914;2023-07-08T01:23:56;18.70;50.60
16032;DHT22;8120;48.308;8.914;2023-07-08T01:26:25;18.70;50.30
16032;DHT22;8120;48.308;8.914;2023-07-08T01:28:54;18.70;51.00
16032;DHT22;8120;48.308;8.914;2023-07-08T01:31:23;18.40;52.10
16032;DHT22;8120;48.308;8.914;2023-07-08T01:33:52;18.10;52.40
16032;DHT22;8120;48.308;8.914;2023-07-08T01:36:20;18.00;53.00
16032;DHT22;8120;48.308;8.914;2023-07-08T01:38:50;17.90;53.60
16032;DHT22;8120;48.308;8.914;2023-07-08T01:41:20;17.70;54.50
16032;DHT22;8120;48.308;8.914;2023-07-08T01:43:48;17.60;54.80
16032;DHT22;8120;48.308;8.914;2023-07-08T01:46:19;17.50;55.00
16032;DHT22;8120;48.308;8.914;2023-07-08T01:48:50;17.50;55.20
16032;DHT22;8120;48.308;8.914;2023-07-08T01:51:20;17.50;54.40
16032;DHT22;8120;48.308;8.914;2023-07-08T01:53:48;17.90;52.50
16032;DHT22;8120;48.308;8.914;2023-07-08T01:56:17;18.60;50.50
16032;DHT22;8120;48.308;8.914;2023-07-08T01:58:46;18.60;51.10
16032;DHT22;8120;48.308;8.914;2023-07-08T02:01:14;18.50;51.30
16032;DHT22;8120;48.308;8.914;2023-07-08T02:03:42;18.40;51.50
16032;DHT22;8120;48.308;8.914;2023-07-08T02:06:13;18.50;51.50
16032;DHT22;8120;48.308;8.914;2023-07-08T02:08:41;18.50;51.30
16032;DHT22;8120;48.308;8.914;2023-07-08T02:11:08;18.60;50.80
16032;DHT22;8120;48.308;8.914;2023-07-08T02:13:36;18.60;51.20
16032;DHT22;8120;48.308;8.914;2023-07-08T02:16:07;18.50;51.30
16032;DHT22;8120;48.308;8.914;2023-07-08T02:18:35;18.40;51.90
16032;DHT22;8120;48.308;8.914;2023-07-08T02:21:03;18.20;52.50
16032;DHT22;8120;48.308;8.914;2023-07-08T02:23:32;18.00;53.30
16032;DHT22;8120;48.308;8.914;2023-07-08T02:26:00;17.90;53.60
16032;DHT22;8120;48.308;8.914;2023-07-08T02:28:28;17.80;54.20
16032;DHT22;8120;48.308;8.914;2023-07-08T02:30:55;17.70;54.60
16032;DHT22;8120;48.308;8.914;2023-07-08T02:33:25;17.50;54.90
16032;DHT22;8120;48.308;8.914;2023-07-08T02:36:00;17.40;55.40
16032;DHT22;8120;48.308;8.914;2023-07-08T02:38:28;17.40;55.50
16032;DHT22;8120;48.308;8.914;2023-07-08T02:41:00;17.40;55.30
16032;DHT22;8120;48.308;8.914;2023-07-08T02:43:28;17.30;55.70
16032;DHT22;8120;48.308;8.914;2023-07-08T02:45:56;17.30;55.80
16032;DHT22;8120;48.308;8.914;2023-07-08T02:48:25;17.30;56.50
16032;DHT22;8120;48.308;8.914;2023-07-08T02:50:58;17.40;55.10
16032;DHT22;8120;48.308;8.914;2023-07-08T02:53:27;17.40;55.40
16032;DHT22;8120;48.308;8.914;2023-07-08T02:55:55;17.50;55.30
16032;DHT22;8120;48.308;8.914;2023-07-08T02:58:23;17.40;55.60
16032;DHT22;8120;48.308;8.914;2023-07-08T03:00:52;17.60;54.20
16032;DHT22;8120;48.308;8.914;2023-07-08T03:03:20;17.70;55.00
16032;DHT22;8120;48.308;8.914;2023-07-08T03:05:55;17.70;54.40
16032;DHT22;8120;48.308;8.914;2023-07-08T03:08:23;17.80;54.30
16032;DHT22;8120;48.308;8.914;2023-07-08T03:10:56;18.00;53.30
16032;DHT22;8120;48.308;8.914;2023-07-08T03:13:25;18.10;53.30
16032;DHT22;8120;48.308;8.914;2023-07-08T03:15:53;18.20;52.60
16032;DHT22;8120;48.308;8.914;2023-07-08T03:18:21;18.70;50.80
16032;DHT22;8120;48.308;8.914;2023-07-08T03:20:50;19.00;50.30
16032;DHT22;8120;48.308;8.914;2023-07-08T03:23:19;18.90;50.70
16032;DHT22;8120;48.308;8.914;2023-07-08T03:25:47;18.60;52.90
16032;DHT22;8120;48.308;8.914;2023-07-08T03:28:15;18.20;54.40
16032;DHT22;8120;48.308;8.914;2023-07-08T03:30:44;17.70;55.50
16032;DHT22;8120;48.308;8.914;2023-07-08T03:33:12;17.60;55.90
16032;DHT22;8120;48.308;8.914;2023-07-08T03:35:40;17.50;56.20
16032;DHT22;8120;48.308;8.914;2023-07-08T03:38:08;17.40;56.10
16032;DHT22;8120;48.308;8.914;2023-07-08T03:40:37;17.40;56.20
16032;DHT22;8120;48.308;8.914;2023-07-08T03:43:05;17.30;56.40
16032;DHT22;8120;48.308;8.914;2023-07-08T03:45:33;17.30;56.40
16032;DHT22;8120;48.308;8.914;2023-07-08T03:48:01;17.20;57.00
16032;DHT22;8120;48.308;8.914;2023-07-08T03:50:29;17.20;57.20
16032;DHT22;8120;48.308;8.914;2023-07-08T03:52:57;17.20;57.90
16032;DHT22;8120;48.308;8.914;2023-07-08T03:55:26;17.30;57.60
16032;DHT22;8120;48.308;8.914;2023-07-08T03:57:56;17.40;58.10
16032;DHT22;8120;48.308;8.914;2023-07-08T04:00:24;17.70;57.80
16032;DHT22;8120;48.308;8.914;2023-07-08T04:02:52;17.90;56.90
16032;DHT22;8120;48.308;8.914;2023-07-08T04:05:21;18.20;56.80
16032;DHT22;8120;48.308;8.914;2023-07-08T04:07:50;18.10;56.40
16032;DHT22;8120;48.308;8.914;2023-07-08T04:10:18;17.90;56.70
16032;DHT22;8120;48.308;8.914;2023-07-08T04:12:46;18.00;56.90
16032;DHT22;8120;48.308;8.914;2023-07-08T04:15:15;18.30;56.50
16032;DHT22;8120;48.308;8.914;2023-07-08T04:17:46;18.30;56.20
16032;DHT22;8120;48.308;8.914;2023-07-08T04:20:15;18.10;56.50
16032;DHT22;8120;48.308;8.914;2023-07-08T04:22:45;17.90;56.70
16032;DHT22;8120;48.308;8.914;2023-07-08T04:25:14;17.80;56.70
16032;DHT22;8120;48.308;8.914;2023-07-08T04:27:42;17.80;55.90
16032;DHT22;8120;48.308;8.914;2023-07-08T04:30:20;17.80;56.10
16032;DHT22;8120;48.308;8.914;2023-07-08T04:32:50;17.80;56.90
16032;DHT22;8120;48.308;8.914;2023-07-08T04:35:18;17.70;57.20
16032;DHT22;8120;48.308;8.914;2023-07-08T04:37:46;17.60;57.20
16032;DHT22;8120;48.308;8.914;2023-07-08T04:40:17;17.50;57.30
16032;DHT22;8120;48.308;8.914;2023-07-08T04:42:46;17.70;57.40
16032;DHT22;8120;48.308;8.914;2023-07-08T04:45:16;17.70;57.80
16032;DHT22;8120;48.308;8.914;2023-07-08T04:47:46;17.80;57.60
16032;DHT22;8120;48.308;8.914;2023-07-08T04:50:20;18.00;57.60
16032;DHT22;8120;48.308;8.914;2023-07-08T04:52:48;18.20;56.50
16032;DHT22;8120;48.308;8.914;2023-07-08T04:55:18;18.40;56.00
16032;DHT22;8120;48.308;8.914;2023-07-08T04:57:46;18.70;55.30
16032;DHT22;8120;48.308;8.914;2023-07-08T05:00:16;18.90;54.50
16032;DHT22;8120;48.308;8.914;2023-07-08T05:02:45;18.90;54.70
16032;DHT22;8120;48.308;8.914;2023-07-08T05:05:13;18.90;55.10
16032;DHT22;8120;48.308;8.914;2023-07-08T05:07:41;19.10;54.30
16032;DHT22;8120;48.308;8.914;2023-07-08T05:10:10;19.40;53.20
16032;DHT22;8120;48.308;8.914;2023-07-08T05:12:38;19.60;52.90
16032;DHT22;8120;48.308;8.914;2023-07-08T05:15:06;19.90;52.20
16032;DHT22;8120;48.308;8.914;2023-07-08T05:17:34;20.00;52.20
16032;DHT22;8120;48.308;8.914;2023-07-08T05:20:05;20.10;52.40
16032;DHT22;8120;48.308;8.914;2023-07-08T05:22:34;20.10;52.30
16032;DHT22;8120;48.308;8.914;2023-07-08T05:25:03;20.20;52.10
16032;DHT22;8120;48.308;8.914;2023-07-08T05:27:32;20.30;51.80
16032;DHT22;8120;48.308;8.914;2023-07-08T05:30:01;20.40;51.50
16032;DHT22;8120;48.308;8.914;2023-07-08T05:32:29;20.50;51.10
16032;DHT22;8120;48.308;8.914;2023-07-08T05:34:57;20.50;51.20
16032;DHT22;8120;48.308;8.914;2023-07-08T05:37:26;20.60;50.90
16032;DHT22;8120;48.308;8.914;2023-07-08T05:39:56;20.70;51.10
16032;DHT22;8120;48.308;8.914;2023-07-08T05:42:26;20.70;51.10
16032;DHT22;8120;48.308;8.914;2023-07-08T05:44:54;20.70;50.60
16032;DHT22;8120;48.308;8.914;2023-07-08T05:47:22;20.60;50.70
16032;DHT22;8120;48.308;8.914;2023-07-08T05:49:50;20.60;50.70
16032;DHT22;8120;48.308;8.914;2023-07-08T05:52:18;20.70;50.90
16032;DHT22;8120;48.308;8.914;2023-07-08T05:54:48;20.60;51.30
16032;DHT22;8120;48.308;8.914;2023-07-08T05:57:16;20.60;51.50
16032;DHT22;8120;48.308;8.914;2023-07-08T05:59:43;20.70;51.50
16032;DHT22;8120;48.308;8.914;2023-07-08T06:02:12;20.60;51.40
16032;DHT22;8120;48.308;8.914;2023-07-08T06:04:40;20.60;51.90
16032;DHT22;8120;48.308;8.914;2023-07-08T06:07:08;20.70;51.50
16032;DHT22;8120;48.308;8.914;2023-07-08T06:09:36;20.70;51.50
16032;DHT22;8120;48.308;8.914;2023-07-08T06:12:06;20.70;51.80
16032;DHT22;8120;48.308;8.914;2023-07-08T06:14:33;20.70;52.00
16032;DHT22;8120;48.308;8.914;2023-07-08T06:17:01;20.60;51.90
16032;DHT22;8120;48.308;8.914;2023-07-08T06:19:29;20.60;52.00
16032;DHT22;8120;48.308;8.914;2023-07-08T06:21:57;20.50;52.60
16032;DHT22;8120;48.308;8.914;2023-07-08T06:24:45;20.50;52.90
16032;DHT22;8120;48.308;8.914;2023-07-08T06:27:15;20.50;52.70
16032;DHT22;8120;48.308;8.914;2023-07-08T06:29:44;20.50;52.50
16032;DHT22;8120;48.308;8.914;2023-07-08T06:32:12;20.50;52.20
16032;DHT22;8120;48.308;8.914;2023-07-08T06:34:40;20.50;52.30
16032;DHT22;8120;48.308;8.914;2023-07-08T06:37:08;20.60;52.40
16032;DHT22;8120;48.308;8.914;2023-07-08T06:39:36;20.60;52.60
16032;DHT22;8120;48.308;8.914;2023-07-08T06:42:08;20.60;52.70
16032;DHT22;8120;48.308;8.914;2023-07-08T06:44:37;20.70;53.00
16032;DHT22;8120;48.308;8.914;2023-07-08T06:47:05;20.70;52.70
16032;DHT22;8120;48.308;8.914;2023-07-08T06:49:33;20.70;52.60
16032;DHT22;8120;48.308;8.914;2023-07-08T06:52:01;20.80;52.20
16032;DHT22;8120;48.308;8.914;2023-07-08T06:54:29;20.90;52.40
16032;DHT22;8120;48.308;8.914;2023-07-08T06:56:57;21.00;52.10
16032;DHT22;8120;48.308;8.914;2023-07-08T06:59:25;21.10;52.40
16032;DHT22;8120;48.308;8.914;2023-07-08T07:01:56;21.10;52.00
16032;DHT22;8120;48.308;8.914;2023-07-08T07:04:24;21.10;52.20
16032;DHT22;8120;48.308;8.914;2023-07-08T07:06:52;21.10;52.10
16032;DHT22;8120;48.308;8.914;2023-07-08T07:09:20;21.20;52.20
16032;DHT22;8120;48.308;8.914;2023-07-08T07:11:48;21.30;52.30
16032;DHT22;8120;48.308;8.914;2023-07-08T07:14:16;21.50;52.20
16032;DHT22;8120;48.308;8.914;2023-07-08T07:16:46;21.60;52.10
16032;DHT22;8120;48.308;8.914;2023-07-08T07:19:35;21.70;52.20
16032;DHT22;8120;48.308;8.914;2023-07-08T07:22:03;21.90;52.10
16032;DHT22;8120;48.308;8.914;2023-07-08T07:24:32;22.20;51.30
16032;DHT22;8120;48.308;8.914;2023-07-08T07:27:00;22.10;52.00
16032;DHT22;8120;48.308;8.914;2023-07-08T07:29:28;22.20;51.40
16032;DHT22;8120;48.308;8.914;2023-07-08T07:31:56;22.30;51.60
16032;DHT22;8120;48.308;8.914;2023-07-08T07:34:23;22.60;51.20
16032;DHT22;8120;48.308;8.914;2023-07-08T07:36:53;22.80;50.10
16032;DHT22;8120;48.308;8.914;2023-07-08T07:39:23;22.90;50.00
16032;DHT22;8120;48.308;8.914;2023-07-08T07:41:51;23.00;49.40
16032;DHT22;8120;48.308;8.914;2023-07-08T07:44:19;23.00;49.70
16032;DHT22;8120;48.308;8.914;2023-07-08T07:46:47;23.00;50.20
16032;DHT22;8120;48.308;8.914;2023-07-08T07:49:15;23.00;49.80
16032;DHT22;8120;48.308;8.914;2023-07-08T07:51:43;22.90;50.50
16032;DHT22;8120;48.308;8.914;2023-07-08T07:54:12;23.20;50.40
16032;DHT22;8120;48.308;8.914;2023-07-08T07:56:40;23.50;49.50
16032;DHT22;8120;48.308;8.914;2023-07-08T07:59:09;23.70;48.50
16032;DHT22;8120;48.308;8.914;2023-07-08T08:01:37;23.40;49.60
16032;DHT22;8120;48.308;8.914;2023-07-08T08:04:05;23.30;48.80
16032;DHT22;8120;48.308;8.914;2023-07-08T08:06:33;23.60;48.90
16032;DHT22;8120;48.308;8.914;2023-07-08T08:09:01;23.80;48.10
16032;DHT22;8120;48.308;8.914;2023-07-08T08:11:31;24.10;47.60
16032;DHT22;8120;48.308;8.914;2023-07-08T08:14:00;24.10;46.70
16032;DHT22;8120;48.308;8.914;2023-07-08T08:16:28;23.60;47.50
16032;DHT22;8120;48.308;8.914;2023-07-08T08:18:56;23.70;47.10
16032;DHT22;8120;48.308;8.914;2023-07-08T08:21:24;23.70;47.40
16032;DHT22;8120;48.308;8.914;2023-07-08T08:23:52;23.70;47.20
16032;DHT22;8120;48.308;8.914;2023-07-08T08:26:20;23.90;47.00
16032;DHT22;8120;48.308;8.914;2023-07-08T08:28:49;24.00;46.50
16032;DHT22;8120;48.308;8.914;2023-07-08T08:31:17;24.40;46.20
16032;DHT22;8120;48.308;8.914;2023-07-08T08:33:46;24.80;44.80
16032;DHT22;8120;48.308;8.914;2023-07-08T08:36:13;24.80;45.60
16032;DHT22;8120;48.308;8.914;2023-07-08T08:38:41;24.90;45.70
16032;DHT22;8120;48.308;8.914;2023-07-08T08:41:12;25.30;44.60
16032;DHT22;8120;48.308;8.914;2023-07-08T08:43:41;25.30;44.50
16032;DHT22;8120;48.308;8.914;2023-07-08T08:46:29;25.80;44.90
16032;DHT22;8120;48.308;8.914;2023-07-08T08:49:15;26.10;43.70
16032;DHT22;8120;48.308;8.914;2023-07-08T08:51:44;25.90;43.40
16032;DHT22;8120;48.308;8.914;2023-07-08T08:54:12;26.10;43.60
16032;DHT22;8120;48.308;8.914;2023-07-08T08:56:48;26.00;43.50
16032;DHT22;8120;48.308;8.914;2023-07-08T08:59:30;25.90;43.50
16032;DHT22;8120;48.308;8.914;2023-07-08T09:02:23;26.30;43.20
16032;DHT22;8120;48.308;8.914;2023-07-08T09:04:53;26.70;42.30
16032;DHT22;8120;48.308;8.914;2023-07-08T09:07:21;26.70;43.40
16032;DHT22;8120;48.308;8.914;2023-07-08T09:09:54;26.60;43.50
16032;DHT22;8120;48.308;8.914;2023-07-08T09:12:27;26.50;42.50
16032;DHT22;8120;48.308;8.914;2023-07-08T09:14:57;26.60;42.80
16032;DHT22;8120;48.308;8.914;2023-07-08T09:17:29;27.20;41.70
16032;DHT22;8120;48.308;8.914;2023-07-08T09:20:12;27.20;42.00
16032;DHT22;8120;48.308;8.914;2023-07-08T09:22:44;27.50;41.50
16032;DHT22;8120;48.308;8.914;2023-07-08T09:25:22;28.40;40.50
16032;DHT22;8120;48.308;8.914;2023-07-08T09:27:51;29.10;39.30
16032;DHT22;8120;48.308;8.914;2023-07-08T09:30:20;29.10;39.40
16032;DHT22;8120;48.308;8.914;2023-07-08T09:32:50;28.80;39.30
16032;DHT22;8120;48.308;8.914;2023-07-08T09:35:22;28.90;38.00
16032;DHT22;8120;48.308;8.914;2023-07-08T09:37:50;29.10;38.30
16032;DHT22;8120;48.308;8.914;2023-07-08T09:40:21;29.30;38.60
16032;DHT22;8120;48.308;8.914;2023-07-08T09:42:51;29.50;38.90
16032;DHT22;8120;48.308;8.914;2023-07-08T09:45:24;29.90;38.20
16032;DHT22;8120;48.308;8.914;2023-07-08T09:47:55;30.20;36.90
16032;DHT22;8120;48.308;8.914;2023-07-08T09:50:24;29.90;37.50
16032;DHT22;8120;48.308;8.914;2023-07-08T09:52:55;29.70;36.50
16032;DHT22;8120;48.308;8.914;2023-07-08T09:55:24;29.60;37.60
16032;DHT22;8120;48.308;8.914;2023-07-08T09:57:53;29.50;37.40
16032;DHT22;8120;48.308;8.914;2023-07-08T10:00:27;29.80;37.10
16032;DHT22;8120;48.308;8.914;2023-07-08T10:02:58;29.80;36.80
16032;DHT22;8120;48.308;8.914;2023-07-08T10:05:32;30.10;36.60
16032;DHT22;8120;48.308;8.914;2023-07-08T10:08:03;30.40;36.40
16032;DHT22;8120;48.308;8.914;2023-07-08T10:10:38;30.30;35.30
16032;DHT22;8120;48.308;8.914;2023-07-08T10:13:14;29.80;36.20
16032;DHT22;8120;48.308;8.914;2023-07-08T10:15:47;29.90;36.10
16032;DHT22;8120;48.308;8.914;2023-07-08T10:18:28;28.90;37.10
16032;DHT22;8120;48.308;8.914;2023-07-08T10:21:02;29.10;36.80
16032;DHT22;8120;48.308;8.914;2023-07-08T10:23:43;29.00;36.90
16032;DHT22;8120;48.308;8.914;2023-07-08T10:26:19;29.20;36.90
16032;DHT22;8120;48.308;8.914;2023-07-08T10:28:57;29.00;37.20
16032;DHT22;8120;48.308;8.914;2023-07-08T10:31:32;29.10;36.60
16032;DHT22;8120;48.308;8.914;2023-07-08T10:34:18;29.20;37.30
16032;DHT22;8120;48.308;8.914;2023-07-08T10:36:53;28.70;37.00
16032;DHT22;8120;48.308;8.914;2023-07-08T10:42:32;29.30;37.20
16032;DHT22;8120;48.308;8.914;2023-07-08T10:45:09;29.10;37.40
16032;DHT22;8120;48.308;8.914;2023-07-08T10:47:45;29.10;37.50
16032;DHT22;8120;48.308;8.914;2023-07-08T10:50:30;29.00;36.80
16032;DHT22;8120;48.308;8.914;2023-07-08T10:53:23;28.70;37.50
16032;DHT22;8120;48.308;8.914;2023-07-08T10:55:56;29.00;38.10
16032;DHT22;8120;48.308;8.914;2023-07-08T10:58:43;29.40;37.30
16032;DHT22;8120;48.308;8.914;2023-07-08T11:01:21;29.60;36.50
16032;DHT22;8120;48.308;8.914;2023-07-08T11:04:03;30.00;35.40
16032;DHT22;8120;48.308;8.914;2023-07-08T11:06:45;30.20;34.70
16032;DHT22;8120;48.308;8.914;2023-07-08T11:09:17;30.60;34.70
16032;DHT22;8120;48.308;8.914;2023-07-08T11:11:51;30.30;35.20
16032;DHT22;8120;48.308;8.914;2023-07-08T11:14:24;30.80;34.90
16032;DHT22;8120;48.308;8.914;2023-07-08T11:17:00;31.30;34.40
16032;DHT22;8120;48.308;8.914;2023-07-08T11:19:34;30.60;35.10
16032;DHT22;8120;48.308;8.914;2023-07-08T11:22:09;30.60;35.70
16032;DHT22;8120;48.308;8.914;2023-07-08T11:24:42;30.70;35.40
16032;DHT22;8120;48.308;8.914;2023-07-08T11:27:15;30.80;35.40
16032;DHT22;8120;48.308;8.914;2023-07-08T11:29:49;30.80;34.60
16032;DHT22;8120;48.308;8.914;2023-07-08T11:32:21;30.70;35.30
16032;DHT22;8120;48.308;8.914;2023-07-08T11:34:51;30.40;35.10
16032;DHT22;8120;48.308;8.914;2023-07-08T11:37:22;30.30;35.30
16032;DHT22;8120;48.308;8.914;2023-07-08T11:39:54;30.50;35.40
16032;DHT22;8120;48.308;8.914;2023-07-08T11:42:25;30.00;36.50
16032;DHT22;8120;48.308;8.914;2023-07-08T11:44:59;30.20;36.20
16032;DHT22;8120;48.308;8.914;2023-07-08T11:47:35;30.40;35.40
16032;DHT22;8120;48.308;8.914;2023-07-08T11:50:05;30.30;35.30
16032;DHT22;8120;48.308;8.914;2023-07-08T11:52:37;30.30;35.80
16032;DHT22;8120;48.308;8.914;2023-07-08T11:55:14;30.50;35.60
16032;DHT22;8120;48.308;8.914;2023-07-08T11:57:53;30.20;34.20
16032;DHT22;8120;48.308;8.914;2023-07-08T12:00:25;30.40;34.40
16032;DHT22;8120;48.308;8.914;2023-07-08T12:02:56;30.60;35.10
16032;DHT22;8120;48.308;8.914;2023-07-08T12:05:32;30.50;35.50
16032;DHT22;8120;48.308;8.914;2023-07-08T12:08:03;30.50;34.80
16032;DHT22;8120;48.308;8.914;2023-07-08T12:10:40;30.60;35.10
16032;DHT22;8120;48.308;8.914;2023-07-08T12:13:13;30.70;35.20
16032;DHT22;8120;48.308;8.914;2023-07-08T12:15:42;30.70;34.30
16032;DHT22;8120;48.308;8.914;2023-07-08T12:18:15;30.00;35.40
16032;DHT22;8120;48.308;8.914;2023-07-08T12:20:46;29.70;35.80
16032;DHT22;8120;48.308;8.914;2023-07-08T12:23:18;29.70;35.60
16032;DHT22;8120;48.308;8.914;2023-07-08T12:25:49;30.30;36.60
16032;DHT22;8120;48.308;8.914;2023-07-08T12:28:18;30.80;35.90
16032;DHT22;8120;48.308;8.914;2023-07-08T12:30:48;31.00;34.30
16032;DHT22;8120;48.308;8.914;2023-07-08T12:33:18;30.90;34.30
16032;DHT22;8120;48.308;8.914;2023-07-08T12:35:46;30.90;35.10
16032;DHT22;8120;48.308;8.914;2023-07-08T12:38:23;31.20;34.90
16032;DHT22;8120;48.308;8.914;2023-07-08T12:40:55;30.80;34.90
16032;DHT22;8120;48.308;8.914;2023-07-08T12:43:24;30.80;35.40
16032;DHT22;8120;48.308;8.914;2023-07-08T12:45:52;31.00;35.20
16032;DHT22;8120;48.308;8.914;2023-07-08T12:48:20;31.00;35.20
16032;DHT22;8120;48.308;8.914;2023-07-08T12:50:48;30.20;35.40
16032;DHT22;8120;48.308;8.914;2023-07-08T12:53:19;30.80;35.10
16032;DHT22;8120;48.308;8.914;2023-07-08T12:55:56;31.20;34.80
16032;DHT22;8120;48.308;8.914;2023-07-08T12:58:28;31.10;34.50
16032;DHT22;8120;48.308;8.914;2023-07-08T13:01:00;31.00;35.10
16032;DHT22;8120;48.308;8.914;2023-07-08T13:03:33;31.20;34.80
16032;DHT22;8120;48.308;8.914;2023-07-08T13:06:02;31.40;35.40
16032;DHT22;8120;48.308;8.914;2023-07-08T13:08:35;31.00;36.90
16032;DHT22;8120;48.308;8.914;2023-07-08T13:11:05;31.10;35.40
16032;DHT22;8120;48.308;8.914;2023-07-08T13:13:36;30.70;35.70
16032;DHT22;8120;48.308;8.914;2023-07-08T13:16:05;31.10;35.40
16032;DHT22;8120;48.308;8.914;2023-07-08T13:18:35;31.20;36.10
16032;DHT22;8120;48.308;8.914;2023-07-08T13:21:05;31.20;36.10
16032;DHT22;8120;48.308;8.914;2023-07-08T13:23:35;31.00;36.10
16032;DHT22;8120;48.308;8.914;2023-07-08T13:26:12;30.80;36.30
16032;DHT22;8120;48.308;8.914;2023-07-08T13:28:41;30.80;36.50
16032;DHT22;8120;48.308;8.914;2023-07-08T13:31:16;30.90;36.80
16032;DHT22;8120;48.308;8.914;2023-07-08T13:33:51;31.10;36.20
16032;DHT22;8120;48.308;8.914;2023-07-08T13:36:21;31.30;35.60
16032;DHT22;8120;48.308;8.914;2023-07-08T13:38:51;30.80;35.30
16032;DHT22;8120;48.308;8.914;2023-07-08T13:41:21;30.40;35.80
16032;DHT22;8120;48.308;8.914;2023-07-08T13:43:49;30.40;35.80
16032;DHT22;8120;48.308;8.914;2023-07-08T13:46:32;30.80;36.50
16032;DHT22;8120;48.308;8.914;2023-07-08T13:49:02;31.30;35.40
16032;DHT22;8120;48.308;8.914;2023-07-08T13:51:32;31.20;36.00
16032;DHT22;8120;48.308;8.914;2023-07-08T13:54:09;31.30;36.00
16032;DHT22;8120;48.308;8.914;2023-07-08T13:56:40;31.20;36.50
16032;DHT22;8120;48.308;8.914;2023-07-08T13:59:10;30.80;35.90
16032;DHT22;8120;48.308;8.914;2023-07-08T14:01:41;30.60;35.60
16032;DHT22;8120;48.308;8.914;2023-07-08T14:04:11;30.30;35.80
16032;DHT22;8120;48.308;8.914;2023-07-08T14:06:41;30.90;35.40
16032;DHT22;8120;48.308;8.914;2023-07-08T14:09:14;30.60;36.30
16032;DHT22;8120;48.308;8.914;2023-07-08T14:11:43;30.90;35.60
16032;DHT22;8120;48.308;8.914;2023-07-08T14:14:11;31.30;35.90
16032;DHT22;8120;48.308;8.914;2023-07-08T14:16:41;31.40;35.30
16032;DHT22;8120;48.308;8.914;2023-07-08T14:19:13;31.50;35.60
16032;DHT22;8120;48.308;8.914;2023-07-08T14:21:42;31.60;35.30
16032;DHT22;8120;48.308;8.914;2023-07-08T14:24:13;31.20;35.20
16032;DHT22;8120;48.308;8.914;2023-07-08T14:26:42;31.00;34.90
16032;DHT22;8120;48.308;8.914;2023-07-08T14:29:10;30.70;35.70
16032;DHT22;8120;48.308;8.914;2023-07-08T14:31:39;30.60;36.30
16032;DHT22;8120;48.308;8.914;2023-07-08T14:34:16;31.00;35.50
16032;DHT22;8120;48.308;8.914;2023-07-08T14:36:44;31.30;35.20
16032;DHT22;8120;48.308;8.914;2023-07-08T14:39:15;31.70;35.00
16032;DHT22;8120;48.308;8.914;2023-07-08T14:41:45;31.80;34.80
16032;DHT22;8120;48.308;8.914;2023-07-08T14:44:23;31.80;33.80
16032;DHT22;8120;48.308;8.914;2023-07-08T14:46:52;31.70;33.90
16032;DHT22;8120;48.308;8.914;2023-07-08T14:49:22;31.60;34.00
16032;DHT22;8120;48.308;8.914;2023-07-08T14:51:51;31.70;33.40
16032;DHT22;8120;48.308;8.914;2023-07-08T14:54:21;31.80;33.50
16032;DHT22;8120;48.308;8.914;2023-07-08T14:56:49;31.90;34.40
16032;DHT22;8120;48.308;8.914;2023-07-08T14:59:18;32.10;33.10
16032;DHT22;8120;48.308;8.914;2023-07-08T15:01:47;31.60;33.30
16032;DHT22;8120;48.308;8.914;2023-07-08T15:04:19;31.10;35.10
16032;DHT22;8120;48.308;8.914;2023-07-08T15:06:47;30.80;35.20
16032;DHT22;8120;48.308;8.914;2023-07-08T15:09:16;30.70;35.30
16032;DHT22;8120;48.308;8.914;2023-07-08T15:11:46;31.10;34.50
16032;DHT22;8120;48.308;8.914;2023-07-08T15:14:18;31.20;34.80
16032;DHT22;8120;48.308;8.914;2023-07-08T15:16:46;31.40;35.20
16032;DHT22;8120;48.308;8.914;2023-07-08T15:19:14;31.40;35.70
16032;DHT22;8120;48.308;8.914;2023-07-08T15:21:42;31.30;35.60
16032;DHT22;8120;48.308;8.914;2023-07-08T15:24:12;31.50;36.10
16032;DHT22;8120;48.308;8.914;2023-07-08T15:26:41;31.50;35.40
16032;DHT22;8120;48.308;8.914;2023-07-08T15:29:15;31.10;36.40
16032;DHT22;8120;48.308;8.914;2023-07-08T15:31:44;30.90;35.90
16032;DHT22;8120;48.308;8.914;2023-07-08T15:34:13;31.00;35.40
16032;DHT22;8120;48.308;8.914;2023-07-08T15:36:41;31.20;35.00
16032;DHT22;8120;48.308;8.914;2023-07-08T15:39:09;31.40;35.20
16032;DHT22;8120;48.308;8.914;2023-07-08T15:41:37;31.00;35.50
16032;DHT22;8120;48.308;8.914;2023-07-08T15:44:08;31.30;35.40
16032;DHT22;8120;48.308;8.914;2023-07-08T15:46:41;31.40;35.20
16032;DHT22;8120;48.308;8.914;2023-07-08T15:49:13;31.30;35.20
16032;DHT22;8120;48.308;8.914;2023-07-08T15:51:42;31.10;35.90
16032;DHT22;8120;48.308;8.914;2023-07-08T15:54:14;31.20;35.70
16032;DHT22;8120;48.308;8.914;2023-07-08T15:56:43;31.40;35.50
16032;DHT22;8120;48.308;8.914;2023-07-08T15:59:12;31.30;35.10
16032;DHT22;8120;48.308;8.914;2023-07-08T16:01:43;31.30;35.20
16032;DHT22;8120;48.308;8.914;2023-07-08T16:04:21;31.20;35.40
16032;DHT22;8120;48.308;8.914;2023-07-08T16:06:50;31.00;35.80
16032;DHT22;8120;48.308;8.914;2023-07-08T16:09:18;30.60;36.10